Dory — WDJ3671 — position and weather

sailwx.info

Track history (hours):
 
Tides and Currents Weather Stations Pressure Air Temp Water Temp Dewpoint Dewpoint Depression Visibility Wind Speed Wind Dir Waves Ship Positions

Dory

Owner: Greater NY Marine Transportation LLC, SYOSSET, NY. More information available from US FCC via Universal Licensing System and Coast Guard Vessel Documentation Center.

Last reported at 2017-Dec-17 03:58 UTC. Time now 2017-Dec-17 04:04 UTC.
Position N 39°27' W 075°59'.

Length 24 m; draft 2.4 m.

Type: Tug. MMSI: 367605380.

Date/timePositionNaut miles runAvg speedWind from/ knotsBaromVisibWave heightAir tempDewpointWater temp
2017-Dec-17 03:58N 39°27' W 075°59'0 0.0
2017-Dec-17 03:28N 39°27' W 075°59'0 0.0
2017-Dec-17 02:55N 39°27' W 075°59'0 0.0
2017-Dec-17 02:28N 39°27' W 075°59'0 0.0
2017-Dec-17 01:58N 39°27' W 075°59'0 0.0
2017-Dec-17 01:28N 39°27' W 075°59'0 0.0
2017-Dec-17 00:58N 39°27' W 075°59'0 0.0
2017-Dec-17 00:28N 39°27' W 075°59'0 0.0
2017-Dec-16 23:55N 39°27' W 075°59'0 0.0
2017-Dec-16 23:28N 39°27' W 075°59'0 0.0
2017-Dec-16 22:58N 39°27' W 075°59'0 0.0
2017-Dec-16 22:28N 39°27' W 075°59'0 0.0
2017-Dec-16 21:58N 39°27' W 075°59'0 0.0
2017-Dec-16 21:25N 39°27' W 075°59'0 0.0
2017-Dec-16 20:58N 39°27' W 075°59'0 0.0
2017-Dec-16 20:25N 39°27' W 075°59'0 0.0
2017-Dec-16 19:58N 39°27' W 075°59'0 0.0
2017-Dec-16 19:28N 39°27' W 075°59'0 0.0
2017-Dec-16 18:58N 39°27' W 075°59'0 0.0
2017-Dec-16 18:28N 39°27' W 075°59'0 0.0
2017-Dec-16 17:58N 39°27' W 075°59'0 0.0
2017-Dec-16 17:28N 39°27' W 075°59'0 0.0
2017-Dec-16 16:58N 39°27' W 075°59'0 0.0
2017-Dec-16 16:28N 39°27' W 075°59'0 0.0
2017-Dec-16 15:55N 39°27' W 075°59'0 0.0
2017-Dec-16 15:28N 39°27' W 075°59'0 0.0
2017-Dec-16 14:55N 39°27' W 075°59'0 0.0
2017-Dec-16 14:28N 39°27' W 075°59'0 0.0
2017-Dec-16 13:58N 39°27' W 075°59'0 0.0
2017-Dec-16 09:45N 39°27' W 075°59'0 0.0
2017-Dec-16 09:16N 39°27' W 075°59'0 0.0
2017-Dec-16 08:57N 39°27' W 075°59'1 2.0
2017-Dec-16 08:27N 39°26' W 076°00'713.6
2017-Dec-16 07:54N 39°22' W 076°08'1 2.8
2017-Dec-16 07:27N 39°21' W 076°09'17 6.7
2017-Dec-16 04:57N 39°11' W 076°26'4 8.8
2017-Dec-16 04:27N 39°13' W 076°31'3 0.2
2017-Dec-15 14:23N 39°13' W 076°35'0 0.0
2017-Dec-15 13:44N 39°13' W 076°35'0 0.0
2017-Dec-15 13:14N 39°13' W 076°35'0 0.0
2017-Dec-15 12:59N 39°13' W 076°35'0 0.0
2017-Dec-14 12:14N 39°13' W 076°35'0 0.0
2017-Dec-14 11:50N 39°13' W 076°35'0 0.0
2017-Dec-14 11:20N 39°13' W 076°35'0 0.0
2017-Dec-14 09:35N 39°13' W 076°35'0 0.0
2017-Dec-14 06:44N 39°13' W 076°35'0 0.0
2017-Dec-14 04:17N 39°13' W 076°35'0 0.0
2017-Dec-14 03:59N 39°13' W 076°35'0 0.1
2017-Dec-14 02:21N 39°13' W 076°35'2 4.5
2017-Dec-14 01:57N 39°13' W 076°33'20 6.7
2017-Dec-13 22:59N 39°21' W 076°09'4 8.3
2017-Dec-13 22:30N 39°23' W 076°05'4 8.3
2017-Dec-13 21:59N 39°26' W 076°00'1 2.3
2017-Dec-13 21:25N 39°27' W 075°59'0 0.0
2017-Dec-13 20:58N 39°27' W 075°59'0 0.0
2017-Dec-13 20:01N 39°27' W 075°59'0 0.0
2017-Dec-13 19:55N 39°27' W 075°59'0 0.0
2017-Dec-13 19:25N 39°27' W 075°59'0 0.0
2017-Dec-13 18:34N 39°27' W 075°59'0 0.0
2017-Dec-13 18:28N 39°27' W 075°59'0 0.0
2017-Dec-13 17:58N 39°27' W 075°59'0 0.0
2017-Dec-13 17:28N 39°27' W 075°59'0 0.2
2017-Dec-13 17:00N 39°27' W 075°59'0 0.1
2017-Dec-13 13:13N 39°27' W 075°59'2 6.0
2017-Dec-13 12:57N 39°28' W 075°58'4 8.6
2017-Dec-13 12:30N 39°31' W 075°54'4 6.9
2017-Dec-13 11:57N 39°32' W 075°50'0 0.0
2017-Dec-13 11:30N 39°32' W 075°49'0 0.0
2017-Dec-13 11:00N 39°32' W 075°50'0 0.0
2017-Dec-13 10:30N 39°32' W 075°50'0 0.0
2017-Dec-13 10:00N 39°32' W 075°50'0 0.0
2017-Dec-13 09:30N 39°32' W 075°50'0 0.0
2017-Dec-13 09:00N 39°32' W 075°49'0 0.0
2017-Dec-13 08:27N 39°32' W 075°50'0 0.0
2017-Dec-13 08:00N 39°32' W 075°50'0 0.0
2017-Dec-13 07:30N 39°32' W 075°50'0 0.0
2017-Dec-13 07:00N 39°32' W 075°49'0 0.0
2017-Dec-13 06:27N 39°32' W 075°50'0 0.0
2017-Dec-13 06:00N 39°32' W 075°49'0 0.0
2017-Dec-13 05:30N 39°32' W 075°49'0 0.0
2017-Dec-13 05:00N 39°32' W 075°50'0 0.0
2017-Dec-13 04:24N 39°32' W 075°49'0 0.0
2017-Dec-13 04:00N 39°32' W 075°50'0 0.0
2017-Dec-13 03:30N 39°32' W 075°50'0 0.0
2017-Dec-13 03:00N 39°32' W 075°49'0 0.0
2017-Dec-13 02:30N 39°32' W 075°49'0 0.0
2017-Dec-13 02:00N 39°32' W 075°49'0 0.0
2017-Dec-13 01:30N 39°32' W 075°50'0 0.0
2017-Dec-13 01:00N 39°32' W 075°50'0 0.0
2017-Dec-13 00:30N 39°32' W 075°49'0 0.0
2017-Dec-13 00:00N 39°32' W 075°50'0 0.0
2017-Dec-12 23:28N 39°32' W 075°49'0 0.0
2017-Dec-12 22:58N 39°32' W 075°50'0 0.0
2017-Dec-12 22:25N 39°32' W 075°50'0 0.0
2017-Dec-12 21:58N 39°32' W 075°49'0 0.0
2017-Dec-12 21:28N 39°32' W 075°50'0 0.0
2017-Dec-12 20:58N 39°32' W 075°49'0 0.0
2017-Dec-12 20:28N 39°32' W 075°49'0 0.0
2017-Dec-12 19:55N 39°32' W 075°49'0 0.0
2017-Dec-12 19:28N 39°32' W 075°49'0 0.0
2017-Dec-12 18:55N 39°32' W 075°50'0 0.0
2017-Dec-12 18:28N 39°32' W 075°49'0 0.0
2017-Dec-12 17:58N 39°32' W 075°49'0 0.0
2017-Dec-12 17:25N 39°32' W 075°49'0 0.0
2017-Dec-12 16:58N 39°32' W 075°49'0 0.0
2017-Dec-12 12:06N 39°32' W 075°50'0 0.0
2017-Dec-12 05:13N 39°32' W 075°50'0 0.0
2017-Dec-12 04:06N 39°32' W 075°50'0 0.0
2017-Dec-12 02:30N 39°32' W 075°50'0 0.0
2017-Dec-12 02:00N 39°32' W 075°50'0 0.0
2017-Dec-12 01:25N 39°32' W 075°50'0 0.0
2017-Dec-12 00:58N 39°32' W 075°50'0 0.0
2017-Dec-12 00:28N 39°32' W 075°49'0 0.0
2017-Dec-11 23:58N 39°32' W 075°50'0 0.0
2017-Dec-11 23:25N 39°32' W 075°50'0 0.0
2017-Dec-11 22:58N 39°32' W 075°50'0 0.0
2017-Dec-11 22:28N 39°32' W 075°50'0 0.1
2017-Dec-11 21:58N 39°32' W 075°49'1 1.8
2017-Dec-11 21:30N 39°32' W 075°51'5 9.7
2017-Dec-11 21:00N 39°30' W 075°56'4 4.3
2017-Dec-11 20:07N 39°27' W 075°60'0 0.0
2017-Dec-11 19:58N 39°27' W 075°60'0 0.0
2017-Dec-11 19:28N 39°27' W 075°60'0 0.0
2017-Dec-11 18:58N 39°27' W 075°60'0 0.0
2017-Dec-11 18:29N 39°27' W 075°60'0 0.0
2017-Dec-11 17:59N 39°27' W 075°60'0 0.0
2017-Dec-11 17:26N 39°27' W 075°60'0 0.0
2017-Dec-11 16:59N 39°27' W 075°60'0 0.0
2017-Dec-11 16:29N 39°27' W 075°60'0 0.0
2017-Dec-11 15:50N 39°27' W 075°60'0 0.0
2017-Dec-11 15:29N 39°27' W 075°60'0 0.0
2017-Dec-11 14:59N 39°27' W 075°60'0 0.0
2017-Dec-11 14:29N 39°27' W 075°60'0 0.0
2017-Dec-11 13:59N 39°27' W 075°60'0 0.0
2017-Dec-11 13:29N 39°27' W 075°60'0 0.0
2017-Dec-11 12:59N 39°27' W 075°60'0 0.0
2017-Dec-11 12:29N 39°27' W 075°60'0 0.0
2017-Dec-11 11:59N 39°27' W 075°60'0 0.0
2017-Dec-11 11:26N 39°27' W 075°60'0 0.0
2017-Dec-11 10:59N 39°27' W 075°60'0 0.2
2017-Dec-11 10:23N 39°27' W 075°59'0 0.0
2017-Dec-11 09:59N 39°27' W 075°59'0 0.0
2017-Dec-11 09:26N 39°27' W 075°59'0 0.0
2017-Dec-11 08:56N 39°27' W 075°59'0 0.0
2017-Dec-11 08:23N 39°27' W 075°59'0 0.0
2017-Dec-11 07:59N 39°27' W 075°59'0 0.0
2017-Dec-11 07:29N 39°27' W 075°59'0 0.0
2017-Dec-11 06:56N 39°27' W 075°59'0 0.0
2017-Dec-11 06:26N 39°27' W 075°59'0 0.3
2017-Dec-11 05:59N 39°27' W 075°60'0 0.0
2017-Dec-11 05:26N 39°27' W 075°60'0 0.0
2017-Dec-11 04:59N 39°27' W 075°60'0 0.0
2017-Dec-11 04:29N 39°27' W 075°60'0 0.0
2017-Dec-11 03:59N 39°27' W 075°60'0 0.0
2017-Dec-11 03:29N 39°27' W 075°60'0 0.0
2017-Dec-11 02:59N 39°27' W 075°60'0 0.0
2017-Dec-11 02:29N 39°27' W 075°60'0 0.0
2017-Dec-11 01:59N 39°27' W 075°60'0 0.0
2017-Dec-11 01:29N 39°27' W 075°60'0 0.0
2017-Dec-11 00:59N 39°27' W 075°60'0 0.0
2017-Dec-11 00:29N 39°27' W 075°60'0 0.2
2017-Dec-11 00:00N 39°27' W 075°59'0 0.0
2017-Dec-10 23:30N 39°27' W 075°59'0 0.0
2017-Dec-10 22:54N 39°27' W 075°59'0 0.0
2017-Dec-10 21:48N 39°27' W 075°59'0 0.0
2017-Dec-10 15:23N 39°27' W 075°59'0 0.2
2017-Dec-10 14:58N 39°27' W 075°60'0 0.0
2017-Dec-10 14:28N 39°27' W 075°60'0 0.0
2017-Dec-10 13:58N 39°27' W 075°60'0 0.0
2017-Dec-10 13:25N 39°27' W 075°60'0 0.0
2017-Dec-10 12:58N 39°27' W 075°60'0 0.0
2017-Dec-10 12:25N 39°27' W 075°60'0 0.0
2017-Dec-10 11:58N 39°27' W 075°60'0 0.0
2017-Dec-10 11:28N 39°27' W 075°60'0 0.0
2017-Dec-10 10:55N 39°27' W 075°60'0 0.0
2017-Dec-10 10:28N 39°27' W 075°60'0 0.0
2017-Dec-10 09:58N 39°27' W 075°60'0 0.0
2017-Dec-10 09:25N 39°27' W 075°60'0 0.0
2017-Dec-10 08:58N 39°27' W 075°60'0 0.0
2017-Dec-10 08:28N 39°27' W 075°60'0 0.0
2017-Dec-10 07:58N 39°27' W 075°60'0 0.0
2017-Dec-10 07:28N 39°27' W 075°60'0 0.0
2017-Dec-10 06:55N 39°27' W 075°60'0 0.0
2017-Dec-10 06:28N 39°27' W 075°60'0 0.0
2017-Dec-10 05:58N 39°27' W 075°60'0 0.0
2017-Dec-10 05:28N 39°27' W 075°60'0 0.0
2017-Dec-10 04:58N 39°27' W 075°60'0 0.0
2017-Dec-10 04:28N 39°27' W 075°60'0 0.0
2017-Dec-10 03:55N 39°27' W 075°60'0 0.0
2017-Dec-10 03:28N 39°27' W 075°60'0 0.0
2017-Dec-10 02:58N 39°27' W 075°60'0 0.0
2017-Dec-10 02:28N 39°27' W 075°60'0 0.0
2017-Dec-10 01:58N 39°27' W 075°60'0 0.0
2017-Dec-10 01:28N 39°27' W 075°60'0 0.0
2017-Dec-10 00:58N 39°27' W 075°60'0 0.0
2017-Dec-10 00:28N 39°27' W 075°60'0 0.0
2017-Dec-09 23:55N 39°27' W 075°60'0 0.0
2017-Dec-09 23:25N 39°27' W 075°60'0 0.0
2017-Dec-09 22:55N 39°27' W 075°60'0 0.0
2017-Dec-09 22:19N 39°27' W 075°60'0 0.0
2017-Dec-09 21:58N 39°27' W 075°60'0 0.0
2017-Dec-09 21:25N 39°27' W 075°60'0 0.0
2017-Dec-09 20:58N 39°27' W 075°60'0 0.0
2017-Dec-09 20:28N 39°27' W 075°60'0 0.0
2017-Dec-09 19:52N 39°27' W 075°60'0 0.0
2017-Dec-09 19:28N 39°27' W 075°60'0 0.0
2017-Dec-09 18:58N 39°27' W 075°60'0 0.0
2017-Dec-09 18:19N 39°27' W 075°60'0 0.0
2017-Dec-09 17:58N 39°27' W 075°60'0 0.0
2017-Dec-09 17:22N 39°27' W 075°60'0 0.0
2017-Dec-09 16:55N 39°27' W 075°60'0 0.0
2017-Dec-09 16:28N 39°27' W 075°60'0 0.0
2017-Dec-09 15:58N 39°27' W 075°60'0 0.0
2017-Dec-09 15:25N 39°27' W 075°60'0 0.0
2017-Dec-09 14:58N 39°27' W 075°60'0 0.0
2017-Dec-09 14:28N 39°27' W 075°60'0 0.0
2017-Dec-09 12:28N 39°27' W 075°60'0 0.0
2017-Dec-09 11:55N 39°27' W 075°60'0 0.0
2017-Dec-09 11:22N 39°27' W 075°60'0 0.0
2017-Dec-09 10:58N 39°27' W 075°60'0 0.0
2017-Dec-09 10:25N 39°27' W 075°60'0 0.0
2017-Dec-09 09:58N 39°27' W 075°60'0 0.0
2017-Dec-09 09:28N 39°27' W 075°60'0 0.0
2017-Dec-09 08:55N 39°27' W 075°60'0 0.0
2017-Dec-09 08:25N 39°27' W 075°60'0 0.0
2017-Dec-09 07:58N 39°27' W 075°60'0 0.0
2017-Dec-09 07:25N 39°27' W 075°60'0 0.0
2017-Dec-09 06:58N 39°27' W 075°60'0 0.0
2017-Dec-09 06:28N 39°27' W 075°60'0 0.0
2017-Dec-09 05:58N 39°27' W 075°60'0 0.0
2017-Dec-09 05:25N 39°27' W 075°60'0 0.0
2017-Dec-09 04:58N 39°27' W 075°60'0 0.0
2017-Dec-09 04:28N 39°27' W 075°60'0 0.0
2017-Dec-09 03:58N 39°27' W 075°60'0 0.0
2017-Dec-09 03:19N 39°27' W 075°60'0 0.0
2017-Dec-09 00:40N 39°27' W 075°60'0 0.0
2017-Dec-09 00:19N 39°27' W 075°60'0 0.0
2017-Dec-08 23:58N 39°27' W 075°60'0 0.0
2017-Dec-08 22:37N 39°27' W 075°60'0 0.0
2017-Dec-08 22:28N 39°27' W 075°60'0 0.0
2017-Dec-08 21:49N 39°27' W 075°60'0 0.0
2017-Dec-08 20:28N 39°27' W 075°60'0 0.0
2017-Dec-08 19:46N 39°27' W 075°60'0 0.0
2017-Dec-08 19:28N 39°27' W 075°60'0 0.1
2017-Dec-08 18:59N 39°27' W 075°59'0 0.5
2017-Dec-08 18:30N 39°27' W 075°59'0 0.3
2017-Dec-08 17:53N 39°27' W 075°60'0 0.1
2017-Dec-08 17:30N 39°27' W 075°59'0 0.2
2017-Dec-08 16:51N 39°27' W 075°59'0 0.6
2017-Dec-08 16:28N 39°27' W 075°60'0 0.0
2017-Dec-08 15:58N 39°27' W 075°60'0 0.0
2017-Dec-08 15:28N 39°27' W 075°60'0 0.0
2017-Dec-08 14:58N 39°27' W 075°60'0 0.0
2017-Dec-08 14:25N 39°27' W 075°60'0 0.0
2017-Dec-08 13:58N 39°27' W 075°60'0 0.0
2017-Dec-08 13:28N 39°27' W 075°60'0 0.0
2017-Dec-08 12:58N 39°27' W 075°60'0 0.0
2017-Dec-08 09:36N 39°27' W 075°59'0 0.8
2017-Dec-08 09:28N 39°27' W 075°60'0 0.2
2017-Dec-08 08:57N 39°27' W 075°59'0 0.0
2017-Dec-08 07:21N 39°27' W 075°59'0 0.0
2017-Dec-08 06:57N 39°27' W 075°59'0 0.0
2017-Dec-08 06:24N 39°27' W 075°59'0 0.0
2017-Dec-08 05:56N 39°27' W 075°59'0 0.0
2017-Dec-08 05:26N 39°27' W 075°59'0 0.0
2017-Dec-08 04:56N 39°27' W 075°59'0 0.0
2017-Dec-08 04:26N 39°27' W 075°59'0 0.0
2017-Dec-08 03:56N 39°27' W 075°59'0 0.0
2017-Dec-08 03:29N 39°27' W 075°59'0 0.0
2017-Dec-08 03:00N 39°27' W 075°59'0 0.0
2017-Dec-08 02:30N 39°27' W 075°59'0 0.0
2017-Dec-08 02:00N 39°27' W 075°59'0 0.0
2017-Dec-08 01:30N 39°27' W 075°59'0 0.0
2017-Dec-08 01:00N 39°27' W 075°59'0 0.0
2017-Dec-08 00:30N 39°27' W 075°59'0 0.2
2017-Dec-07 23:59N 39°27' W 075°60'0 0.3
2017-Dec-07 23:30N 39°27' W 075°60'2 3.8
2017-Dec-07 23:00N 39°28' W 075°58'0 0.2
2017-Dec-07 22:30N 39°28' W 075°58'0 0.2
2017-Dec-07 21:57N 39°28' W 075°58'0 0.1
2017-Dec-07 21:30N 39°28' W 075°58'0 0.0
2017-Dec-07 20:51N 39°28' W 075°58'0 0.1
2017-Dec-07 20:30N 39°28' W 075°58'0 0.2
2017-Dec-07 19:59N 39°28' W 075°58'0 0.0
2017-Dec-07 19:30N 39°28' W 075°58'0 0.7
2017-Dec-07 18:57N 39°28' W 075°59'0 0.2
2017-Dec-07 18:30N 39°28' W 075°58'1 1.2
2017-Dec-07 18:00N 39°28' W 075°58'1 1.4
2017-Dec-07 17:27N 39°28' W 075°59'1 2.1
2017-Dec-07 17:00N 39°27' W 075°59'2 3.2
2017-Dec-07 16:26N 39°26' W 076°01'1 1.0
2017-Dec-07 15:53N 39°26' W 076°00'1 1.9
2017-Dec-07 15:30N 39°27' W 075°60'1 1.7
2017-Dec-07 15:00N 39°27' W 075°59'3 3.9
2017-Dec-07 14:20N 39°25' W 076°01'1 2.4
2017-Dec-07 14:01N 39°26' W 076°01'1 1.3
2017-Dec-07 13:08N 39°27' W 075°60'0 2.3
2017-Dec-07 12:59N 39°27' W 075°60'0 0.2
2017-Dec-07 10:55N 39°27' W 075°60'0 0.0
2017-Dec-07 10:05N 39°27' W 075°60'0 0.0
2017-Dec-07 09:50N 39°27' W 075°60'0 0.0
2017-Dec-07 09:26N 39°27' W 075°60'1 2.6
2017-Dec-07 09:00N 39°26' W 076°01'4 7.3
2017-Dec-07 08:30N 39°24' W 076°04'4 7.4
2017-Dec-07 08:01N 39°22' W 076°08'4 7.4
2017-Dec-07 07:30N 39°20' W 076°12'14 6.3
2017-Dec-07 05:15N 39°11' W 076°27'4 8.9
2017-Dec-07 04:48N 39°13' W 076°31'3 8.8
2017-Dec-07 04:30N 39°15' W 076°33'1 1.3
2017-Dec-07 04:00N 39°15' W 076°34'  
Track history (hours):
 
Tides and Currents Weather Stations Pressure Air Temp Water Temp Dewpoint Dewpoint Depression Visibility Wind Speed Wind Dir Waves Ship Positions

Dory

Owner: Greater NY Marine Transportation LLC, SYOSSET, NY. More information available from US FCC via Universal Licensing System and Coast Guard Vessel Documentation Center.

Last reported at 2017-Dec-17 03:58 UTC. Time now 2017-Dec-17 04:04 UTC.
Position N 39°27' W 075°59'.

Length 24 m; draft 2.4 m.

Type: Tug. MMSI: 367605380.

Date/timePositionNaut miles runAvg speedWind from/ knotsBaromVisibWave heightAir tempDewpointWater temp
2017-Dec-17 03:58N 39°27' W 075°59'0 0.0
2017-Dec-17 03:28N 39°27' W 075°59'0 0.0
2017-Dec-17 02:55N 39°27' W 075°59'0 0.0
2017-Dec-17 02:28N 39°27' W 075°59'0 0.0
2017-Dec-17 01:58N 39°27' W 075°59'0 0.0
2017-Dec-17 01:28N 39°27' W 075°59'0 0.0
2017-Dec-17 00:58N 39°27' W 075°59'0 0.0
2017-Dec-17 00:28N 39°27' W 075°59'0 0.0
2017-Dec-16 23:55N 39°27' W 075°59'0 0.0
2017-Dec-16 23:28N 39°27' W 075°59'0 0.0
2017-Dec-16 22:58N 39°27' W 075°59'0 0.0
2017-Dec-16 22:28N 39°27' W 075°59'0 0.0
2017-Dec-16 21:58N 39°27' W 075°59'0 0.0
2017-Dec-16 21:25N 39°27' W 075°59'0 0.0
2017-Dec-16 20:58N 39°27' W 075°59'0 0.0
2017-Dec-16 20:25N 39°27' W 075°59'0 0.0
2017-Dec-16 19:58N 39°27' W 075°59'0 0.0
2017-Dec-16 19:28N 39°27' W 075°59'0 0.0
2017-Dec-16 18:58N 39°27' W 075°59'0 0.0
2017-Dec-16 18:28N 39°27' W 075°59'0 0.0
2017-Dec-16 17:58N 39°27' W 075°59'0 0.0
2017-Dec-16 17:28N 39°27' W 075°59'0 0.0
2017-Dec-16 16:58N 39°27' W 075°59'0 0.0
2017-Dec-16 16:28N 39°27' W 075°59'0 0.0
2017-Dec-16 15:55N 39°27' W 075°59'0 0.0
2017-Dec-16 15:28N 39°27' W 075°59'0 0.0
2017-Dec-16 14:55N 39°27' W 075°59'0 0.0
2017-Dec-16 14:28N 39°27' W 075°59'0 0.0
2017-Dec-16 13:58N 39°27' W 075°59'0 0.0
2017-Dec-16 09:45N 39°27' W 075°59'0 0.0
2017-Dec-16 09:16N 39°27' W 075°59'0 0.0
2017-Dec-16 08:57N 39°27' W 075°59'1 2.0
2017-Dec-16 08:27N 39°26' W 076°00'713.6
2017-Dec-16 07:54N 39°22' W 076°08'1 2.8
2017-Dec-16 07:27N 39°21' W 076°09'17 6.7
2017-Dec-16 04:57N 39°11' W 076°26'4 8.8
2017-Dec-16 04:27N 39°13' W 076°31'3 0.2
2017-Dec-15 14:23N 39°13' W 076°35'0 0.0
2017-Dec-15 13:44N 39°13' W 076°35'0 0.0
2017-Dec-15 13:14N 39°13' W 076°35'0 0.0
2017-Dec-15 12:59N 39°13' W 076°35'0 0.0
2017-Dec-14 12:14N 39°13' W 076°35'0 0.0
2017-Dec-14 11:50N 39°13' W 076°35'0 0.0
2017-Dec-14 11:20N 39°13' W 076°35'0 0.0
2017-Dec-14 09:35N 39°13' W 076°35'0 0.0
2017-Dec-14 06:44N 39°13' W 076°35'0 0.0
2017-Dec-14 04:17N 39°13' W 076°35'0 0.0
2017-Dec-14 03:59N 39°13' W 076°35'0 0.1
2017-Dec-14 02:21N 39°13' W 076°35'2 4.5
2017-Dec-14 01:57N 39°13' W 076°33'20 6.7
2017-Dec-13 22:59N 39°21' W 076°09'4 8.3
2017-Dec-13 22:30N 39°23' W 076°05'4 8.3
2017-Dec-13 21:59N 39°26' W 076°00'1 2.3
2017-Dec-13 21:25N 39°27' W 075°59'0 0.0
2017-Dec-13 20:58N 39°27' W 075°59'0 0.0
2017-Dec-13 20:01N 39°27' W 075°59'0 0.0
2017-Dec-13 19:55N 39°27' W 075°59'0 0.0
2017-Dec-13 19:25N 39°27' W 075°59'0 0.0
2017-Dec-13 18:34N 39°27' W 075°59'0 0.0
2017-Dec-13 18:28N 39°27' W 075°59'0 0.0
2017-Dec-13 17:58N 39°27' W 075°59'0 0.0
2017-Dec-13 17:28N 39°27' W 075°59'0 0.2
2017-Dec-13 17:00N 39°27' W 075°59'0 0.1
2017-Dec-13 13:13N 39°27' W 075°59'2 6.0
2017-Dec-13 12:57N 39°28' W 075°58'4 8.6
2017-Dec-13 12:30N 39°31' W 075°54'4 6.9
2017-Dec-13 11:57N 39°32' W 075°50'0 0.0
2017-Dec-13 11:30N 39°32' W 075°49'0 0.0
2017-Dec-13 11:00N 39°32' W 075°50'0 0.0
2017-Dec-13 10:30N 39°32' W 075°50'0 0.0
2017-Dec-13 10:00N 39°32' W 075°50'0 0.0
2017-Dec-13 09:30N 39°32' W 075°50'0 0.0
2017-Dec-13 09:00N 39°32' W 075°49'0 0.0
2017-Dec-13 08:27N 39°32' W 075°50'0 0.0
2017-Dec-13 08:00N 39°32' W 075°50'0 0.0
2017-Dec-13 07:30N 39°32' W 075°50'0 0.0
2017-Dec-13 07:00N 39°32' W 075°49'0 0.0
2017-Dec-13 06:27N 39°32' W 075°50'0 0.0
2017-Dec-13 06:00N 39°32' W 075°49'0 0.0
2017-Dec-13 05:30N 39°32' W 075°49'0 0.0
2017-Dec-13 05:00N 39°32' W 075°50'0 0.0
2017-Dec-13 04:24N 39°32' W 075°49'0 0.0
2017-Dec-13 04:00N 39°32' W 075°50'0 0.0
2017-Dec-13 03:30N 39°32' W 075°50'0 0.0
2017-Dec-13 03:00N 39°32' W 075°49'0 0.0
2017-Dec-13 02:30N 39°32' W 075°49'0 0.0
2017-Dec-13 02:00N 39°32' W 075°49'0 0.0
2017-Dec-13 01:30N 39°32' W 075°50'0 0.0
2017-Dec-13 01:00N 39°32' W 075°50'0 0.0
2017-Dec-13 00:30N 39°32' W 075°49'0 0.0
2017-Dec-13 00:00N 39°32' W 075°50'0 0.0
2017-Dec-12 23:28N 39°32' W 075°49'0 0.0
2017-Dec-12 22:58N 39°32' W 075°50'0 0.0
2017-Dec-12 22:25N 39°32' W 075°50'0 0.0
2017-Dec-12 21:58N 39°32' W 075°49'0 0.0
2017-Dec-12 21:28N 39°32' W 075°50'0 0.0
2017-Dec-12 20:58N 39°32' W 075°49'0 0.0
2017-Dec-12 20:28N 39°32' W 075°49'0 0.0
2017-Dec-12 19:55N 39°32' W 075°49'0 0.0
2017-Dec-12 19:28N 39°32' W 075°49'0 0.0
2017-Dec-12 18:55N 39°32' W 075°50'0 0.0
2017-Dec-12 18:28N 39°32' W 075°49'0 0.0
2017-Dec-12 17:58N 39°32' W 075°49'0 0.0
2017-Dec-12 17:25N 39°32' W 075°49'0 0.0
2017-Dec-12 16:58N 39°32' W 075°49'0 0.0
2017-Dec-12 12:06N 39°32' W 075°50'0 0.0
2017-Dec-12 05:13N 39°32' W 075°50'0 0.0
2017-Dec-12 04:06N 39°32' W 075°50'0 0.0
2017-Dec-12 02:30N 39°32' W 075°50'0 0.0
2017-Dec-12 02:00N 39°32' W 075°50'0 0.0
2017-Dec-12 01:25N 39°32' W 075°50'0 0.0
2017-Dec-12 00:58N 39°32' W 075°50'0 0.0
2017-Dec-12 00:28N 39°32' W 075°49'0 0.0
2017-Dec-11 23:58N 39°32' W 075°50'0 0.0
2017-Dec-11 23:25N 39°32' W 075°50'0 0.0
2017-Dec-11 22:58N 39°32' W 075°50'0 0.0
2017-Dec-11 22:28N 39°32' W 075°50'0 0.1
2017-Dec-11 21:58N 39°32' W 075°49'1 1.8
2017-Dec-11 21:30N 39°32' W 075°51'5 9.7
2017-Dec-11 21:00N 39°30' W 075°56'4 4.3
2017-Dec-11 20:07N 39°27' W 075°60'0 0.0
2017-Dec-11 19:58N 39°27' W 075°60'0 0.0
2017-Dec-11 19:28N 39°27' W 075°60'0 0.0
2017-Dec-11 18:58N 39°27' W 075°60'0 0.0
2017-Dec-11 18:29N 39°27' W 075°60'0 0.0
2017-Dec-11 17:59N 39°27' W 075°60'0 0.0
2017-Dec-11 17:26N 39°27' W 075°60'0 0.0
2017-Dec-11 16:59N 39°27' W 075°60'0 0.0
2017-Dec-11 16:29N 39°27' W 075°60'0 0.0
2017-Dec-11 15:50N 39°27' W 075°60'0 0.0
2017-Dec-11 15:29N 39°27' W 075°60'0 0.0
2017-Dec-11 14:59N 39°27' W 075°60'0 0.0
2017-Dec-11 14:29N 39°27' W 075°60'0 0.0
2017-Dec-11 13:59N 39°27' W 075°60'0 0.0
2017-Dec-11 13:29N 39°27' W 075°60'0 0.0
2017-Dec-11 12:59N 39°27' W 075°60'0 0.0
2017-Dec-11 12:29N 39°27' W 075°60'0 0.0
2017-Dec-11 11:59N 39°27' W 075°60'0 0.0
2017-Dec-11 11:26N 39°27' W 075°60'0 0.0
2017-Dec-11 10:59N 39°27' W 075°60'0 0.2
2017-Dec-11 10:23N 39°27' W 075°59'0 0.0
2017-Dec-11 09:59N 39°27' W 075°59'0 0.0
2017-Dec-11 09:26N 39°27' W 075°59'0 0.0
2017-Dec-11 08:56N 39°27' W 075°59'0 0.0
2017-Dec-11 08:23N 39°27' W 075°59'0 0.0
2017-Dec-11 07:59N 39°27' W 075°59'0 0.0
2017-Dec-11 07:29N 39°27' W 075°59'0 0.0
2017-Dec-11 06:56N 39°27' W 075°59'0 0.0
2017-Dec-11 06:26N 39°27' W 075°59'0 0.3
2017-Dec-11 05:59N 39°27' W 075°60'0 0.0
2017-Dec-11 05:26N 39°27' W 075°60'0 0.0
2017-Dec-11 04:59N 39°27' W 075°60'0 0.0
2017-Dec-11 04:29N 39°27' W 075°60'0 0.0
2017-Dec-11 03:59N 39°27' W 075°60'0 0.0
2017-Dec-11 03:29N 39°27' W 075°60'0 0.0
2017-Dec-11 02:59N 39°27' W 075°60'0 0.0
2017-Dec-11 02:29N 39°27' W 075°60'0 0.0
2017-Dec-11 01:59N 39°27' W 075°60'0 0.0
2017-Dec-11 01:29N 39°27' W 075°60'0 0.0
2017-Dec-11 00:59N 39°27' W 075°60'0 0.0
2017-Dec-11 00:29N 39°27' W 075°60'0 0.2
2017-Dec-11 00:00N 39°27' W 075°59'0 0.0
2017-Dec-10 23:30N 39°27' W 075°59'0 0.0
2017-Dec-10 22:54N 39°27' W 075°59'0 0.0
2017-Dec-10 21:48N 39°27' W 075°59'0 0.0
2017-Dec-10 15:23N 39°27' W 075°59'0 0.2
2017-Dec-10 14:58N 39°27' W 075°60'0 0.0
2017-Dec-10 14:28N 39°27' W 075°60'0 0.0
2017-Dec-10 13:58N 39°27' W 075°60'0 0.0
2017-Dec-10 13:25N 39°27' W 075°60'0 0.0
2017-Dec-10 12:58N 39°27' W 075°60'0 0.0
2017-Dec-10 12:25N 39°27' W 075°60'0 0.0
2017-Dec-10 11:58N 39°27' W 075°60'0 0.0
2017-Dec-10 11:28N 39°27' W 075°60'0 0.0
2017-Dec-10 10:55N 39°27' W 075°60'0 0.0
2017-Dec-10 10:28N 39°27' W 075°60'0 0.0
2017-Dec-10 09:58N 39°27' W 075°60'0 0.0
2017-Dec-10 09:25N 39°27' W 075°60'0 0.0
2017-Dec-10 08:58N 39°27' W 075°60'0 0.0
2017-Dec-10 08:28N 39°27' W 075°60'0 0.0
2017-Dec-10 07:58N 39°27' W 075°60'0 0.0
2017-Dec-10 07:28N 39°27' W 075°60'0 0.0
2017-Dec-10 06:55N 39°27' W 075°60'0 0.0
2017-Dec-10 06:28N 39°27' W 075°60'0 0.0
2017-Dec-10 05:58N 39°27' W 075°60'0 0.0
2017-Dec-10 05:28N 39°27' W 075°60'0 0.0
2017-Dec-10 04:58N 39°27' W 075°60'0 0.0
2017-Dec-10 04:28N 39°27' W 075°60'0 0.0
2017-Dec-10 03:55N 39°27' W 075°60'0 0.0
2017-Dec-10 03:28N 39°27' W 075°60'0 0.0
2017-Dec-10 02:58N 39°27' W 075°60'0 0.0
2017-Dec-10 02:28N 39°27' W 075°60'0 0.0
2017-Dec-10 01:58N 39°27' W 075°60'0 0.0
2017-Dec-10 01:28N 39°27' W 075°60'0 0.0
2017-Dec-10 00:58N 39°27' W 075°60'0 0.0
2017-Dec-10 00:28N 39°27' W 075°60'0 0.0
2017-Dec-09 23:55N 39°27' W 075°60'0 0.0
2017-Dec-09 23:25N 39°27' W 075°60'0 0.0
2017-Dec-09 22:55N 39°27' W 075°60'0 0.0
2017-Dec-09 22:19N 39°27' W 075°60'0 0.0
2017-Dec-09 21:58N 39°27' W 075°60'0 0.0
2017-Dec-09 21:25N 39°27' W 075°60'0 0.0
2017-Dec-09 20:58N 39°27' W 075°60'0 0.0
2017-Dec-09 20:28N 39°27' W 075°60'0 0.0
2017-Dec-09 19:52N 39°27' W 075°60'0 0.0
2017-Dec-09 19:28N 39°27' W 075°60'0 0.0
2017-Dec-09 18:58N 39°27' W 075°60'0 0.0
2017-Dec-09 18:19N 39°27' W 075°60'0 0.0
2017-Dec-09 17:58N 39°27' W 075°60'0 0.0
2017-Dec-09 17:22N 39°27' W 075°60'0 0.0
2017-Dec-09 16:55N 39°27' W 075°60'0 0.0
2017-Dec-09 16:28N 39°27' W 075°60'0 0.0
2017-Dec-09 15:58N 39°27' W 075°60'0 0.0
2017-Dec-09 15:25N 39°27' W 075°60'0 0.0
2017-Dec-09 14:58N 39°27' W 075°60'0 0.0
2017-Dec-09 14:28N 39°27' W 075°60'0 0.0
2017-Dec-09 12:28N 39°27' W 075°60'0 0.0
2017-Dec-09 11:55N 39°27' W 075°60'0 0.0
2017-Dec-09 11:22N 39°27' W 075°60'0 0.0
2017-Dec-09 10:58N 39°27' W 075°60'0 0.0
2017-Dec-09 10:25N 39°27' W 075°60'0 0.0
2017-Dec-09 09:58N 39°27' W 075°60'0 0.0
2017-Dec-09 09:28N 39°27' W 075°60'0 0.0
2017-Dec-09 08:55N 39°27' W 075°60'0 0.0
2017-Dec-09 08:25N 39°27' W 075°60'0 0.0
2017-Dec-09 07:58N 39°27' W 075°60'0 0.0
2017-Dec-09 07:25N 39°27' W 075°60'0 0.0
2017-Dec-09 06:58N 39°27' W 075°60'0 0.0
2017-Dec-09 06:28N 39°27' W 075°60'0 0.0
2017-Dec-09 05:58N 39°27' W 075°60'0 0.0
2017-Dec-09 05:25N 39°27' W 075°60'0 0.0
2017-Dec-09 04:58N 39°27' W 075°60'0 0.0
2017-Dec-09 04:28N 39°27' W 075°60'0 0.0
2017-Dec-09 03:58N 39°27' W 075°60'0 0.0
2017-Dec-09 03:19N 39°27' W 075°60'0 0.0
2017-Dec-09 00:40N 39°27' W 075°60'0 0.0
2017-Dec-09 00:19N 39°27' W 075°60'0 0.0
2017-Dec-08 23:58N 39°27' W 075°60'0 0.0
2017-Dec-08 22:37N 39°27' W 075°60'0 0.0
2017-Dec-08 22:28N 39°27' W 075°60'0 0.0
2017-Dec-08 21:49N 39°27' W 075°60'0 0.0
2017-Dec-08 20:28N 39°27' W 075°60'0 0.0
2017-Dec-08 19:46N 39°27' W 075°60'0 0.0
2017-Dec-08 19:28N 39°27' W 075°60'0 0.1
2017-Dec-08 18:59N 39°27' W 075°59'0 0.5
2017-Dec-08 18:30N 39°27' W 075°59'0 0.3
2017-Dec-08 17:53N 39°27' W 075°60'0 0.1
2017-Dec-08 17:30N 39°27' W 075°59'0 0.2
2017-Dec-08 16:51N 39°27' W 075°59'0 0.6
2017-Dec-08 16:28N 39°27' W 075°60'0 0.0
2017-Dec-08 15:58N 39°27' W 075°60'0 0.0
2017-Dec-08 15:28N 39°27' W 075°60'0 0.0
2017-Dec-08 14:58N 39°27' W 075°60'0 0.0
2017-Dec-08 14:25N 39°27' W 075°60'0 0.0
2017-Dec-08 13:58N 39°27' W 075°60'0 0.0
2017-Dec-08 13:28N 39°27' W 075°60'0 0.0
2017-Dec-08 12:58N 39°27' W 075°60'0 0.0
2017-Dec-08 09:36N 39°27' W 075°59'0 0.8
2017-Dec-08 09:28N 39°27' W 075°60'0 0.2
2017-Dec-08 08:57N 39°27' W 075°59'0 0.0
2017-Dec-08 07:21N 39°27' W 075°59'0 0.0
2017-Dec-08 06:57N 39°27' W 075°59'0 0.0
2017-Dec-08 06:24N 39°27' W 075°59'0 0.0
2017-Dec-08 05:56N 39°27' W 075°59'0 0.0
2017-Dec-08 05:26N 39°27' W 075°59'0 0.0
2017-Dec-08 04:56N 39°27' W 075°59'0 0.0
2017-Dec-08 04:26N 39°27' W 075°59'0 0.0
2017-Dec-08 03:56N 39°27' W 075°59'0 0.0
2017-Dec-08 03:29N 39°27' W 075°59'0 0.0
2017-Dec-08 03:00N 39°27' W 075°59'0 0.0
2017-Dec-08 02:30N 39°27' W 075°59'0 0.0
2017-Dec-08 02:00N 39°27' W 075°59'0 0.0
2017-Dec-08 01:30N 39°27' W 075°59'0 0.0
2017-Dec-08 01:00N 39°27' W 075°59'0 0.0
2017-Dec-08 00:30N 39°27' W 075°59'0 0.2
2017-Dec-07 23:59N 39°27' W 075°60'0 0.3
2017-Dec-07 23:30N 39°27' W 075°60'2 3.8
2017-Dec-07 23:00N 39°28' W 075°58'0 0.2
2017-Dec-07 22:30N 39°28' W 075°58'0 0.2
2017-Dec-07 21:57N 39°28' W 075°58'0 0.1
2017-Dec-07 21:30N 39°28' W 075°58'0 0.0
2017-Dec-07 20:51N 39°28' W 075°58'0 0.1
2017-Dec-07 20:30N 39°28' W 075°58'0 0.2
2017-Dec-07 19:59N 39°28' W 075°58'0 0.0
2017-Dec-07 19:30N 39°28' W 075°58'0 0.7
2017-Dec-07 18:57N 39°28' W 075°59'0 0.2
2017-Dec-07 18:30N 39°28' W 075°58'1 1.2
2017-Dec-07 18:00N 39°28' W 075°58'1 1.4
2017-Dec-07 17:27N 39°28' W 075°59'1 2.1
2017-Dec-07 17:00N 39°27' W 075°59'2 3.2
2017-Dec-07 16:26N 39°26' W 076°01'1 1.0
2017-Dec-07 15:53N 39°26' W 076°00'1 1.9
2017-Dec-07 15:30N 39°27' W 075°60'1 1.7
2017-Dec-07 15:00N 39°27' W 075°59'3 3.9
2017-Dec-07 14:20N 39°25' W 076°01'1 2.4
2017-Dec-07 14:01N 39°26' W 076°01'1 1.3
2017-Dec-07 13:08N 39°27' W 075°60'0 2.3
2017-Dec-07 12:59N 39°27' W 075°60'0 0.2
2017-Dec-07 10:55N 39°27' W 075°60'0 0.0
2017-Dec-07 10:05N 39°27' W 075°60'0 0.0
2017-Dec-07 09:50N 39°27' W 075°60'0 0.0
2017-Dec-07 09:26N 39°27' W 075°60'1 2.6
2017-Dec-07 09:00N 39°26' W 076°01'4 7.3
2017-Dec-07 08:30N 39°24' W 076°04'4 7.4
2017-Dec-07 08:01N 39°22' W 076°08'4 7.4
2017-Dec-07 07:30N 39°20' W 076°12'14 6.3
2017-Dec-07 05:15N 39°11' W 076°27'4 8.9
2017-Dec-07 04:48N 39°13' W 076°31'3 8.8
2017-Dec-07 04:30N 39°15' W 076°33'1 1.3
2017-Dec-07 04:00N 39°15' W 076°34'  

Dump ship's entire track history